| time (UTC) | temp F | wind direction | speed knots | gust knots | rain 1hr in | rain 24hr in | rain mn in | humidity % | barometer mb |
| 20260906220106 | 99 | 0.0 | 0.0 | 0.00 | 0.00 | 0.00 | 34 | 1012.9 | |
| 20260906214607 | 100 | 0.0 | 0.0 | 0.00 | 0.00 | 0.00 | 34 | 1013.0 | |
| 20260906213107 | 103 | 0.0 | 0.0 | 0.00 | 0.00 | 0.00 | 33 | 1013.1 | |
| 20260906211604 | 103 | 0.0 | 0.0 | 0.00 | 0.00 | 0.00 | 32 | 1013.4 | |
| 20260906210115 | 103 | 0.0 | 0.0 | 0.00 | 0.00 | 0.00 | 31 | 1013.6 | |
| 20260906204615 | 104 | 0.0 | 0.0 | 0.00 | 0.00 | 0.00 | 30 | 1013.8 | |
| 20260906203104 | 105 | 0.0 | 0.0 | 0.00 | 0.00 | 0.00 | 30 | 1013.8 | |
| 20260906201603 | 105 | 0.0 | 0.0 | 0.00 | 0.00 | 0.00 | 30 | 1014.0 | |
| 20260906200104 | 104 | 0.0 | 0.0 | 0.00 | 0.00 | 0.00 | 31 | 1014.1 | |
| 20260906194609 | 103 | 0.0 | 0.0 | 0.00 | 0.00 | 0.00 | 31 | 1014.3 | |
| 20260906193103 | 100 | 0.0 | 0.0 | 0.00 | 0.00 | 0.00 | 33 | 1014.4 | |
| 20260906191605 | 101 | 0.0 | 0.0 | 0.00 | 0.00 | 0.00 | 33 | 1014.6 | |
| 20260906190106 | 100 | 0.0 | 0.0 | 0.00 | 0.00 | 0.00 | 34 | 1014.7 | |
| 20260906184618 | 99 | 0.0 | 0.0 | 0.00 | 0.00 | 0.00 | 35 | 1015.0 | |
| 20260906183106 | 97 | 0.0 | 0.0 | 0.00 | 0.00 | 0.00 | 38 | 1015.1 | |
| 20260906181609 | 95 | 0.0 | 0.0 | 0.00 | 0.00 | 0.00 | 40 | 1015.3 | |
| 20260906180106 | 97 | 0.0 | 0.0 | 0.00 | 0.00 | 0.00 | 37 | 1015.6 | |
| 20260906174604 | 99 | 0.0 | 0.0 | 0.00 | 0.00 | 0.00 | 37 | 1016.0 | |
| 20260906173107 | 96 | 0.0 | 0.0 | 0.00 | 0.00 | 0.00 | 41 | 1016.3 | |
| 20260906171605 | 97 | 0.0 | 0.0 | 0.00 | 0.00 | 0.00 | 39 | 1016.4 | |
| 20260906170106 | 95 | 0.0 | 0.0 | 0.00 | 0.00 | 0.00 | 42 | 1016.6 | |
| 20260906164620 | 95 | 0.0 | 0.0 | 0.00 | 0.00 | 0.00 | 42 | 1016.8 | |
| 20260906163110 | 94 | 0.0 | 0.0 | 0.00 | 0.00 | 0.00 | 43 | 1016.6 | |
| 20260906161605 | 92 | 0.0 | 0.0 | 0.00 | 0.00 | 0.00 | 46 | 1016.8 | |
| 20260906160113 | 89 | 0.0 | 0.0 | 0.00 | 0.00 | 0.00 | 50 | 1016.7 | |
| 20260906154609 | 88 | 0.0 | 0.0 | 0.00 | 0.00 | 0.00 | 52 | 1016.6 | |
| 20260906153105 | 85 | 0.0 | 0.0 | 0.00 | 0.00 | 0.00 | 56 | 1016.6 | |
| 20260906151609 | 84 | 0.0 | 0.0 | 0.00 | 0.00 | 0.00 | 58 | 1016.7 | |
| 20260906150112 | 82 | 0.0 | 0.0 | 0.00 | 0.00 | 0.00 | 61 | 1016.5 | |
| 20260906144634 | 81 | 0.0 | 0.0 | 0.00 | 0.00 | 0.00 | 62 | 1016.6 | |
| 20260906143116 | 81 | 0.0 | 0.0 | 0.00 | 0.00 | 0.00 | 62 | 1016.6 | |
| 20260906141606 | 80 | 0.0 | 0.0 | 0.00 | 0.00 | 0.00 | 62 | 1016.6 | |
| 20260906140107 | 80 | 0.0 | 0.0 | 0.00 | 0.00 | 0.00 | 62 | 1016.7 | |
| 20260906134604 | 78 | 0.0 | 0.0 | 0.00 | 0.00 | 0.00 | 64 | 1016.6 | |
| 20260906133109 | 78 | 0.0 | 0.0 | 0.00 | 0.00 | 0.00 | 64 | 1016.4 | |
| 20260906131615 | 77 | 0.0 | 0.0 | 0.00 | 0.00 | 0.00 | 66 | 1016.2 | |
| 20260906130101 | 75 | 0.0 | 0.0 | 0.00 | 0.00 | 0.00 | 70 | 1016.2 | |
| 20260906124608 | 75 | 0.0 | 0.0 | 0.00 | 0.00 | 0.00 | 68 | 1016.0 | |
| 20260906123110 | 75 | 0.0 | 0.0 | 0.00 | 0.00 | 0.00 | 68 | 1015.9 | |
| 20260906121602 | 75 | 0.0 | 0.0 | 0.00 | 0.00 | 0.00 | 68 | 1015.5 | |
| 20260906120126 | 76 | 0.0 | 0.0 | 0.00 | 0.00 | 0.00 | 67 | 1015.3 | |
| 20260906114611 | 76 | 0.0 | 0.0 | 0.00 | 0.00 | 0.00 | 67 | 1015.3 | |
| 20260906113106 | 76 | 0.0 | 0.0 | 0.00 | 0.00 | 0.00 | 66 | 1015.1 | |
| 20260906111604 | 77 | 0.0 | 0.0 | 0.00 | 0.00 | 0.00 | 66 | 1015.0 | |
| 20260906110115 | 77 | 0.0 | 0.0 | 0.00 | 0.00 | 0.00 | 66 | 1014.9 | |
| 20260906104601 | 78 | 0.0 | 0.0 | 0.00 | 0.00 | 0.00 | 65 | 1014.8 | |
| 20260906103103 | 78 | 0.0 | 0.0 | 0.00 | 0.00 | 0.00 | 65 | 1014.7 | |
| 20260906101603 | 78 | 0.0 | 0.0 | 0.00 | 0.00 | 0.00 | 64 | 1014.6 | |
| 20260906100106 | 78 | 0.0 | 0.0 | 0.00 | 0.00 | 0.00 | 64 | 1014.6 | |
| 20260906094601 | 78 | 0.0 | 0.0 | 0.00 | 0.00 | 0.00 | 64 | 1014.5 | |
| 20260906093118 | 78 | 0.0 | 0.0 | 0.00 | 0.00 | 0.00 | 63 | 1014.5 | |
| 20260906091605 | 78 | 0.0 | 0.0 | 0.00 | 0.00 | 0.00 | 63 | 1014.5 | |
| 20260906090128 | 79 | 0.0 | 0.0 | 0.00 | 0.00 | 0.00 | 63 | 1014.5 | |
| 20260906084604 | 79 | 0.0 | 0.0 | 0.00 | 0.00 | 0.00 | 63 | 1014.5 | |
| 20260906083106 | 80 | 0.0 | 0.0 | 0.00 | 0.00 | 0.00 | 62 | 1014.5 | |
| 20260906081604 | 80 | 0.0 | 0.0 | 0.00 | 0.00 | 0.00 | 60 | 1014.4 | |
| 20260906080105 | 81 | 0.0 | 0.0 | 0.00 | 0.00 | 0.00 | 59 | 1014.4 | |
| 20260906074607 | 81 | 0.0 | 0.0 | 0.00 | 0.00 | 0.00 | 58 | 1014.4 | |
| 20260906073105 | 82 | 0.0 | 0.0 | 0.00 | 0.00 | 0.00 | 56 | 1014.7 | |
| 20260906071611 | 82 | 0.0 | 0.0 | 0.00 | 0.00 | 0.00 | 55 | 1014.9 | |
| 20260906070106 | 81 | 0.0 | 0.0 | 0.00 | 0.00 | 0.00 | 55 | 1015.0 | |
| 20260906064604 | 81 | 0.0 | 0.0 | 0.00 | 0.00 | 0.00 | 54 | 1015.1 | |
| 20260906063106 | 82 | 0.0 | 0.0 | 0.00 | 0.00 | 0.00 | 54 | 1015.3 | |
| 20260906061610 | 82 | 0.0 | 0.0 | 0.00 | 0.00 | 0.00 | 53 | 1015.2 | |
| 20260906060104 | 82 | 0.0 | 0.0 | 0.00 | 0.00 | 0.00 | 51 | 1015.4 | |
| 20260906054607 | 83 | 0.0 | 0.0 | 0.00 | 0.00 | 0.00 | 50 | 1015.4 | |
| 20260906053101 | 84 | 0.0 | 0.0 | 0.00 | 0.00 | 0.00 | 50 | 1015.3 | |
| 20260906051606 | 84 | 0.0 | 0.0 | 0.00 | 0.00 | 0.00 | 49 | 1015.4 | |
| 20260906050133 | 84 | 0.0 | 0.0 | 0.00 | 0.00 | 0.00 | 50 | 1015.3 | |
| 20260906044602 | 85 | 0.0 | 0.0 | 0.00 | 0.00 | 0.00 | 49 | 1015.2 | |
| 20260906043111 | 85 | 0.0 | 0.0 | 0.00 | 0.00 | 0.00 | 47 | 1015.3 | |
| 20260906041605 | 86 | 0.0 | 0.0 | 0.00 | 0.00 | 0.00 | 47 | 1015.3 | |
| 20260906040117 | 86 | 0.0 | 0.0 | 0.00 | 0.00 | 0.00 | 46 | 1015.2 | |
| 20260906034602 | 87 | 0.0 | 0.0 | 0.00 | 0.00 | 0.00 | 45 | 1015.0 | |
| 20260906033103 | 87 | 0.0 | 0.0 | 0.00 | 0.00 | 0.00 | 45 | 1014.8 | |
| 20260906031605 | 88 | 0.0 | 0.0 | 0.00 | 0.00 | 0.00 | 44 | 1014.5 | |
| 20260906030135 | 88 | 0.0 | 0.0 | 0.00 | 0.00 | 0.00 | 43 | 1014.5 | |
| 20260906024609 | 89 | 0.0 | 0.0 | 0.00 | 0.00 | 0.00 | 43 | 1014.3 | |
| 20260906023127 | 89 | 0.0 | 0.0 | 0.00 | 0.00 | 0.00 | 42 | 1014.1 | |
| 20260906021616 | 90 | 0.0 | 0.0 | 0.00 | 0.00 | 0.00 | 41 | 1013.9 | |
| 20260906020107 | 91 | 0.0 | 0.0 | 0.00 | 0.00 | 0.00 | 40 | 1013.8 | |
| 20260906014628 | 91 | 0.0 | 0.0 | 0.00 | 0.00 | 0.00 | 39 | 1013.5 | |
| 20260906013104 | 92 | 0.0 | 0.0 | 0.00 | 0.00 | 0.00 | 38 | 1013.2 | |
| 20260906011607 | 93 | 0.0 | 0.0 | 0.00 | 0.00 | 0.00 | 37 | 1012.9 | |
| 20260906010109 | 94 | 0.0 | 0.0 | 0.00 | 0.00 | 0.00 | 37 | 1012.7 | |
| 20260906004606 | 94 | 0.0 | 0.0 | 0.00 | 0.00 | 0.00 | 36 | 1012.7 | |
| 20260906003110 | 95 | 0.0 | 0.0 | 0.00 | 0.00 | 0.00 | 36 | 1012.5 | |
| 20260906001608 | 96 | 0.0 | 0.0 | 0.00 | 0.00 | 0.00 | 35 | 1012.6 | |
| 20260906000105 | 97 | 0.0 | 0.0 | 0.00 | 0.00 | 0.00 | 34 | 1012.4 | |
| 20260905234618 | 98 | 0.0 | 0.0 | 0.00 | 0.00 | 0.00 | 35 | 1012.4 | |
| 20260905233106 | 98 | 0.0 | 0.0 | 0.00 | 0.00 | 0.00 | 35 | 1012.2 | |
| 20260905231607 | 98 | 0.0 | 0.0 | 0.00 | 0.00 | 0.00 | 34 | 1012.1 | |
| 20260905230106 | 100 | 0.0 | 0.0 | 0.00 | 0.00 | 0.00 | 33 | 1012.1 | |
| 20260905224610 | 102 | 0.0 | 0.0 | 0.00 | 0.00 | 0.00 | 31 | 1012.2 | |
| 20260905223107 | 103 | 0.0 | 0.0 | 0.00 | 0.00 | 0.00 | 30 | 1012.2 | |
| 20260905221605 | 103 | 0.0 | 0.0 | 0.00 | 0.00 | 0.00 | 30 | 1012.3 |